Time;durP1;ratioP1;P1;durP2;ratioP2;P2;SDS_P1;SDS_P2;PMS_P1;PMS_P2;Temp;Humidity;BMP_temperature;BMP_pressure;BME280_temperature;BME280_humidity;BME280_pressure;Samples;Min_cycle;Max_cycle;Signal;HPM_P1;HPM_P2
2021/12/26 00:01:43;;;;;;;3.40;2.90;;;;;;;;;;4951162;28;20678;-63
2021/12/26 00:04:16;;;;;;;4.30;3.20;;;;;;;;;;4948147;28;20240;-64
2021/12/26 00:06:44;;;;;;;3.97;3.60;;;;;;;;;;4955966;28;20852;-64
2021/12/26 00:09:11;;;;;;;6.70;6.00;;;;;;;;;;4958244;28;20215;-63
2021/12/26 00:11:39;;;;;;;4.63;3.80;;;;;;;;;;4951507;28;20204;-63
2021/12/26 00:14:06;;;;;;;6.37;5.00;;;;;;;;;;4958441;28;20840;-63
2021/12/26 00:16:34;;;;;;;6.57;4.50;;;;;;;;;;4951658;28;20204;-63
2021/12/26 00:19:02;;;;;;;7.37;5.10;;;;;;;;;;4955022;28;20326;-64
2021/12/26 00:21:29;;;;;;;7.00;5.50;;;;;;;;;;4955542;28;20215;-63
2021/12/26 00:23:58;;;;;;;8.93;5.60;;;;;;;;;;4956038;28;20243;-64
2021/12/26 00:26:31;;;;;;;7.57;4.83;;;;;;;;;;4970016;28;20209;-63
2021/12/26 00:29:00;;;;;;;9.67;5.70;;;;;;;;;;4953269;28;20738;-62
2021/12/26 00:31:28;;;;;;;8.43;4.90;;;;;;;;;;4954252;28;20212;-62
2021/12/26 00:33:56;;;;;;;9.40;5.20;;;;;;;;;;4951218;28;20716;-64
2021/12/26 00:36:23;;;;;;;9.60;5.40;;;;;;;;;;4954084;28;20204;-63
2021/12/26 00:38:50;;;;;;;9.23;5.67;;;;;;;;;;4954574;28;20248;-63
2021/12/26 00:41:18;;;;;;;7.77;5.40;;;;;;;;;;4953494;28;20233;-63
2021/12/26 00:43:45;;;;;;;8.43;5.50;;;;;;;;;;4953558;28;20228;-64
2021/12/26 00:46:15;;;;;;;10.23;5.47;;;;;;;;;;4953685;28;20212;-63
2021/12/26 00:48:43;;;;;;;6.70;4.90;;;;;;;;;;4955559;28;20216;-63
2021/12/26 00:51:10;;;;;;;11.63;5.43;;;;;;;;;;4964319;28;20215;-62
2021/12/26 00:53:38;;;;;;;18.30;5.63;;;;;;;;;;4952189;28;20282;-62
2021/12/26 00:56:05;;;;;;;8.20;5.40;;;;;;;;;;4969235;28;20223;-64
2021/12/26 00:58:33;;;;;;;15.97;5.63;;;;;;;;;;4955786;28;20207;-63
2021/12/26 01:01:00;;;;;;;7.90;5.20;;;;;;;;;;4954150;28;20216;-63
2021/12/26 01:03:28;;;;;;;11.70;5.40;;;;;;;;;;4951956;28;20424;-64
2021/12/26 01:05:57;;;;;;;16.40;5.17;;;;;;;;;;4953767;28;20236;-64
2021/12/26 01:08:30;;;;;;;7.50;4.60;;;;;;;;;;4951792;28;20568;-64
2021/12/26 01:10:58;;;;;;;14.27;5.57;;;;;;;;;;4952093;28;20212;-63
2021/12/26 01:15:56;;;;;;;9.90;5.63;;;;;;;;;;4967224;28;20201;-62
2021/12/26 01:18:24;;;;;;;7.97;5.53;;;;;;;;;;4953098;28;20212;-64
2021/12/26 01:23:21;;;;;;;9.70;6.03;;;;;;;;;;4970209;28;20232;-63
2021/12/26 01:25:49;;;;;;;7.80;5.00;;;;;;;;;;4949420;28;20247;-64
2021/12/26 01:28:18;;;;;;;7.27;4.60;;;;;;;;;;4950259;28;20223;-64
2021/12/26 01:30:46;;;;;;;7.03;5.37;;;;;;;;;;4954436;28;20247;-63
2021/12/26 01:33:14;;;;;;;7.93;5.10;;;;;;;;;;4953342;28;20228;-64
2021/12/26 01:35:41;;;;;;;7.77;4.73;;;;;;;;;;4948374;28;20310;-62
2021/12/26 01:38:13;;;;;;;8.47;5.13;;;;;;;;;;4970277;28;20220;-63
2021/12/26 01:40:47;;;;;;;10.27;6.60;;;;;;;;;;4969484;28;20216;-63
2021/12/26 01:43:16;;;;;;;8.77;5.83;;;;;;;;;;4953537;28;20224;-64
2021/12/26 01:45:43;;;;;;;8.07;5.57;;;;;;;;;;4951009;28;20232;-64
2021/12/26 01:48:12;;;;;;;7.07;4.90;;;;;;;;;;4936276;28;20684;-64
2021/12/26 01:50:41;;;;;;;6.73;4.73;;;;;;;;;;4955061;28;20223;-62
2021/12/26 01:53:10;;;;;;;6.80;5.00;;;;;;;;;;4951303;28;20279;-64
2021/12/26 01:55:40;;;;;;;6.87;4.90;;;;;;;;;;4963117;28;20219;-63
2021/12/26 01:58:16;;;;;;;6.50;4.70;;;;;;;;;;4963239;28;20244;-62
2021/12/26 02:00:44;;;;;;;8.77;5.73;;;;;;;;;;4954161;28;20267;-64
2021/12/26 02:03:12;;;;;;;7.20;4.97;;;;;;;;;;4954663;28;20694;-63
2021/12/26 02:05:40;;;;;;;7.27;5.33;;;;;;;;;;4948345;28;20876;-64
2021/12/26 02:08:08;;;;;;;6.37;4.87;;;;;;;;;;4953078;28;20200;-64
2021/12/26 02:10:35;;;;;;;7.33;5.20;;;;;;;;;;4950577;28;20220;-64
2021/12/26 02:13:03;;;;;;;8.40;5.73;;;;;;;;;;4962793;28;21314;-64
2021/12/26 02:15:30;;;;;;;8.10;5.40;;;;;;;;;;4952735;28;20916;-64
2021/12/26 02:17:57;;;;;;;7.43;5.17;;;;;;;;;;4951922;28;20220;-62
2021/12/26 02:20:53;;;;;;;6.73;5.60;;;;;;;;;;4950402;28;20204;-64
2021/12/26 02:23:39;;;;;;;7.40;5.20;;;;;;;;;;4948096;28;20302;-64
2021/12/26 02:28:41;;;;;;;7.40;5.47;;;;;;;;;;4955184;28;20226;-64
2021/12/26 02:31:08;;;;;;;8.17;5.73;;;;;;;;;;4954755;28;20208;-64
2021/12/26 02:33:36;;;;;;;7.00;4.67;;;;;;;;;;4966375;28;20429;-63
2021/12/26 02:36:04;;;;;;;7.10;4.90;;;;;;;;;;4950160;28;20205;-62
2021/12/26 02:38:32;;;;;;;9.77;4.17;;;;;;;;;;4956472;28;20371;-64
2021/12/26 02:41:00;;;;;;;22.47;4.53;;;;;;;;;;4955682;28;20216;-63
2021/12/26 02:43:29;;;;;;;37.00;5.60;;;;;;;;;;4951446;28;20229;-64
2021/12/26 02:45:57;;;;;;;9.13;4.60;;;;;;;;;;4970995;28;20654;-64
2021/12/26 02:48:24;;;;;;;26.00;5.03;;;;;;;;;;4951629;28;20299;-63
2021/12/26 02:50:56;;;;;;;29.53;4.90;;;;;;;;;;4945245;28;20294;-64
2021/12/26 02:53:23;;;;;;;24.33;4.77;;;;;;;;;;4964159;28;20601;-63
2021/12/26 02:55:51;;;;;;;6.57;3.87;;;;;;;;;;4952356;28;20243;-63
2021/12/26 02:58:19;;;;;;;5.37;4.57;;;;;;;;;;4965477;28;20243;-64
2021/12/26 03:00:49;;;;;;;6.47;4.77;;;;;;;;;;4948925;28;20208;-64
2021/12/26 03:03:17;;;;;;;7.40;4.73;;;;;;;;;;4955108;28;20235;-63
2021/12/26 03:05:45;;;;;;;42.83;5.27;;;;;;;;;;4960347;28;20287;-64
2021/12/26 03:08:16;;;;;;;5.30;3.90;;;;;;;;;;4950029;28;20212;-63
2021/12/26 03:10:44;;;;;;;9.83;4.57;;;;;;;;;;4952334;28;20589;-63
2021/12/26 03:13:11;;;;;;;19.23;3.60;;;;;;;;;;4954770;28;20290;-62
2021/12/26 03:15:39;;;;;;;9.47;4.20;;;;;;;;;;4950917;28;20232;-64
2021/12/26 03:18:07;;;;;;;4.03;3.43;;;;;;;;;;4954081;28;21657;-62
2021/12/26 03:20:38;;;;;;;21.97;4.03;;;;;;;;;;4954815;28;20212;-63
2021/12/26 03:23:06;;;;;;;29.17;5.20;;;;;;;;;;4949466;28;20276;-62
2021/12/26 03:25:35;;;;;;;22.53;7.13;;;;;;;;;;4950716;28;20235;-62
2021/12/26 03:28:04;;;;;;;20.17;7.33;;;;;;;;;;4950676;28;20196;-63
2021/12/26 03:30:32;;;;;;;17.07;8.53;;;;;;;;;;4950364;28;20208;-64
2021/12/26 03:33:00;;;;;;;27.73;8.50;;;;;;;;;;4949753;28;20229;-62
2021/12/26 03:35:28;;;;;;;22.50;6.60;;;;;;;;;;4952406;28;20228;-62
2021/12/26 03:37:57;;;;;;;8.73;6.37;;;;;;;;;;4967150;28;20311;-62
2021/12/26 03:40:25;;;;;;;7.43;5.20;;;;;;;;;;4951859;28;20208;-64
2021/12/26 03:42:53;;;;;;;10.40;4.57;;;;;;;;;;4952860;28;20322;-64
2021/12/26 03:45:38;;;;;;;11.67;4.30;;;;;;;;;;4960090;28;20905;-64
2021/12/26 03:48:05;;;;;;;7.00;4.10;;;;;;;;;;4952688;28;20302;-63
2021/12/26 03:50:34;;;;;;;4.93;3.83;;;;;;;;;;4950288;28;20200;-64
2021/12/26 03:53:02;;;;;;;12.20;3.83;;;;;;;;;;4967488;28;20232;-63
2021/12/26 03:55:30;;;;;;;13.73;3.93;;;;;;;;;;4951361;28;20220;-64
2021/12/26 03:57:57;;;;;;;6.93;3.83;;;;;;;;;;4954401;28;20212;-63
2021/12/26 04:00:27;;;;;;;9.33;4.07;;;;;;;;;;4954030;28;20275;-63
2021/12/26 04:02:55;;;;;;;7.23;4.10;;;;;;;;;;4953797;28;20242;-62
2021/12/26 04:05:23;;;;;;;12.50;4.30;;;;;;;;;;4968126;28;20335;-62
2021/12/26 04:07:50;;;;;;;5.53;3.90;;;;;;;;;;4952945;28;21519;-63
2021/12/26 04:10:19;;;;;;;12.00;3.90;;;;;;;;;;4949296;28;20208;-64
2021/12/26 04:12:48;;;;;;;6.80;4.53;;;;;;;;;;4949463;28;20216;-63
2021/12/26 04:15:18;;;;;;;7.00;4.40;;;;;;;;;;4950466;28;20212;-63
2021/12/26 04:17:45;;;;;;;6.30;4.30;;;;;;;;;;4964121;28;20212;-63
2021/12/26 04:20:13;;;;;;;15.77;4.40;;;;;;;;;;4964982;28;20208;-63
2021/12/26 04:22:41;;;;;;;9.70;3.90;;;;;;;;;;4949071;28;20216;-63
2021/12/26 04:25:08;;;;;;;4.87;3.60;;;;;;;;;;4945996;28;20232;-64
2021/12/26 04:27:36;;;;;;;4.37;3.70;;;;;;;;;;4944139;28;21190;-63
2021/12/26 04:30:10;;;;;;;11.23;4.13;;;;;;;;;;4947011;28;20615;-63
2021/12/26 04:32:37;;;;;;;5.53;4.10;;;;;;;;;;4948345;28;20211;-63
2021/12/26 04:35:05;;;;;;;5.80;4.40;;;;;;;;;;4952022;28;20216;-64
2021/12/26 04:37:34;;;;;;;4.90;4.20;;;;;;;;;;4948049;28;20243;-64
2021/12/26 04:40:07;;;;;;;5.23;4.03;;;;;;;;;;4951240;28;20212;-63
2021/12/26 04:42:36;;;;;;;5.23;3.90;;;;;;;;;;4949477;28;20231;-63
2021/12/26 04:45:07;;;;;;;6.23;4.30;;;;;;;;;;4942844;28;20248;-62
2021/12/26 04:47:35;;;;;;;6.77;4.77;;;;;;;;;;4958832;28;20227;-63
2021/12/26 04:50:11;;;;;;;6.33;4.23;;;;;;;;;;4946155;28;20220;-62
2021/12/26 04:52:40;;;;;;;5.33;3.70;;;;;;;;;;4946380;28;20274;-64
2021/12/26 04:55:08;;;;;;;6.73;4.23;;;;;;;;;;4948853;28;20363;-64
2021/12/26 04:57:36;;;;;;;10.13;4.97;;;;;;;;;;4954835;28;20208;-62
2021/12/26 05:00:11;;;;;;;5.80;3.60;;;;;;;;;;4965454;28;20216;-64
2021/12/26 05:02:39;;;;;;;6.43;3.60;;;;;;;;;;4965146;28;20232;-63
2021/12/26 05:05:07;;;;;;;5.73;4.17;;;;;;;;;;4954039;28;20221;-64
2021/12/26 05:07:36;;;;;;;6.80;3.80;;;;;;;;;;4951181;28;20208;-64
2021/12/26 05:10:04;;;;;;;8.87;5.03;;;;;;;;;;4949652;28;20243;-64
2021/12/26 05:12:31;;;;;;;7.60;4.63;;;;;;;;;;4953382;28;20282;-64
2021/12/26 05:15:01;;;;;;;7.93;4.70;;;;;;;;;;4970637;28;20296;-63
2021/12/26 05:17:30;;;;;;;5.67;3.73;;;;;;;;;;4953770;28;20208;-63
2021/12/26 05:19:58;;;;;;;6.30;4.03;;;;;;;;;;4953908;28;20234;-64
2021/12/26 05:22:25;;;;;;;10.27;4.30;;;;;;;;;;4950861;28;20205;-63
2021/12/26 05:24:53;;;;;;;12.43;4.37;;;;;;;;;;4949993;28;20738;-63
2021/12/26 05:27:22;;;;;;;8.23;4.33;;;;;;;;;;4958453;28;20212;-63
2021/12/26 05:29:49;;;;;;;6.67;4.30;;;;;;;;;;4946093;28;21276;-64
2021/12/26 05:32:17;;;;;;;5.63;3.83;;;;;;;;;;4951478;28;21294;-63
2021/12/26 05:34:44;;;;;;;7.77;6.00;;;;;;;;;;4954058;28;20312;-63
2021/12/26 05:37:12;;;;;;;8.70;3.90;;;;;;;;;;4952596;28;20224;-63
2021/12/26 05:39:39;;;;;;;5.47;3.90;;;;;;;;;;4962374;28;20366;-63
2021/12/26 05:42:07;;;;;;;6.53;3.53;;;;;;;;;;4948879;28;20227;-63
2021/12/26 05:44:35;;;;;;;6.47;3.70;;;;;;;;;;4960688;28;20224;-63
2021/12/26 05:47:02;;;;;;;6.27;4.00;;;;;;;;;;4963470;28;20236;-64
2021/12/26 05:49:30;;;;;;;8.40;4.43;;;;;;;;;;4955742;28;20596;-63
2021/12/26 05:51:58;;;;;;;6.47;4.33;;;;;;;;;;4951737;28;20220;-63
2021/12/26 05:54:25;;;;;;;6.13;4.37;;;;;;;;;;4951231;28;20236;-63
2021/12/26 05:56:52;;;;;;;6.93;4.70;;;;;;;;;;4950895;28;20279;-62
2021/12/26 05:59:20;;;;;;;6.43;4.40;;;;;;;;;;4958531;28;20212;-63
2021/12/26 06:01:47;;;;;;;7.20;4.27;;;;;;;;;;4953082;28;20270;-63
2021/12/26 06:04:15;;;;;;;6.77;3.83;;;;;;;;;;4968186;28;20242;-63
2021/12/26 06:06:44;;;;;;;7.70;4.33;;;;;;;;;;4970542;28;20239;-62
2021/12/26 06:09:12;;;;;;;6.87;4.07;;;;;;;;;;4971656;28;20208;-63
2021/12/26 06:11:39;;;;;;;5.73;4.17;;;;;;;;;;4951558;28;20208;-62
2021/12/26 06:14:06;;;;;;;6.43;3.50;;;;;;;;;;4954344;28;20220;-63
2021/12/26 06:16:34;;;;;;;7.27;3.63;;;;;;;;;;4963860;28;20219;-63
2021/12/26 06:19:01;;;;;;;8.50;4.03;;;;;;;;;;4968111;28;20224;-62
2021/12/26 06:21:29;;;;;;;11.93;4.33;;;;;;;;;;4946990;28;20675;-63
2021/12/26 06:23:56;;;;;;;12.13;4.50;;;;;;;;;;4946904;28;20283;-64
2021/12/26 06:26:25;;;;;;;6.87;4.40;;;;;;;;;;4957000;28;20318;-64
2021/12/26 06:28:53;;;;;;;16.23;4.30;;;;;;;;;;4949763;28;20209;-62
2021/12/26 06:31:20;;;;;;;14.83;4.17;;;;;;;;;;4949379;28;20203;-63
2021/12/26 06:33:48;;;;;;;12.57;4.30;;;;;;;;;;4954359;28;20298;-63
2021/12/26 06:36:16;;;;;;;8.93;4.40;;;;;;;;;;4953520;28;20746;-63
2021/12/26 06:38:44;;;;;;;11.20;4.00;;;;;;;;;;4938260;28;20291;-63
2021/12/26 06:41:13;;;;;;;11.50;3.73;;;;;;;;;;4947777;28;20244;-64
2021/12/26 06:43:40;;;;;;;10.07;3.93;;;;;;;;;;4962261;28;20232;-64
2021/12/26 06:46:08;;;;;;;10.37;3.80;;;;;;;;;;4963365;28;20757;-64
2021/12/26 06:48:35;;;;;;;9.67;4.27;;;;;;;;;;4949408;28;20228;-62
2021/12/26 06:51:03;;;;;;;16.80;4.50;;;;;;;;;;4950743;28;20216;-63
2021/12/26 06:53:30;;;;;;;11.87;4.53;;;;;;;;;;4955040;28;20232;-63
2021/12/26 06:55:59;;;;;;;6.33;4.40;;;;;;;;;;4953060;28;20209;-63
2021/12/26 06:58:26;;;;;;;13.40;4.53;;;;;;;;;;4966393;28;20622;-64
2021/12/26 07:00:54;;;;;;;10.63;4.43;;;;;;;;;;4945111;28;20200;-64
2021/12/26 07:03:23;;;;;;;10.17;5.13;;;;;;;;;;4949846;28;20260;-63
2021/12/26 07:05:50;;;;;;;11.23;4.90;;;;;;;;;;4951933;28;20234;-64
2021/12/26 07:08:18;;;;;;;16.00;5.60;;;;;;;;;;4962553;28;20268;-63
2021/12/26 07:10:45;;;;;;;11.17;5.30;;;;;;;;;;4950331;28;20216;-63
2021/12/26 07:13:12;;;;;;;9.33;5.10;;;;;;;;;;4946514;28;20228;-64
2021/12/26 07:15:40;;;;;;;14.80;5.30;;;;;;;;;;4951877;28;20917;-64
2021/12/26 07:18:07;;;;;;;8.43;4.43;;;;;;;;;;4969994;28;20212;-62
2021/12/26 07:20:35;;;;;;;17.07;5.20;;;;;;;;;;4953939;28;20220;-64
2021/12/26 07:23:02;;;;;;;10.40;4.97;;;;;;;;;;4952537;28;20233;-64
2021/12/26 07:25:30;;;;;;;10.43;6.30;;;;;;;;;;4952474;28;20204;-64
2021/12/26 07:27:57;;;;;;;9.33;5.60;;;;;;;;;;4947828;28;20212;-63
2021/12/26 07:30:25;;;;;;;8.97;4.80;;;;;;;;;;4960129;28;20212;-63
2021/12/26 07:32:52;;;;;;;6.87;4.50;;;;;;;;;;4958153;28;20209;-64
2021/12/26 07:35:19;;;;;;;19.80;5.27;;;;;;;;;;4956548;28;20200;-63
2021/12/26 07:37:47;;;;;;;9.27;5.07;;;;;;;;;;4952351;28;20205;-64
2021/12/26 07:40:14;;;;;;;10.33;5.30;;;;;;;;;;4956644;28;20211;-64
2021/12/26 07:42:42;;;;;;;11.70;5.83;;;;;;;;;;4973270;28;20371;-63
2021/12/26 07:45:09;;;;;;;10.53;5.43;;;;;;;;;;4950891;28;21267;-62
2021/12/26 07:47:38;;;;;;;10.60;4.77;;;;;;;;;;4951889;28;20252;-62
2021/12/26 07:50:06;;;;;;;12.77;4.00;;;;;;;;;;4976970;28;20626;-62
2021/12/26 07:52:40;;;;;;;11.20;4.83;;;;;;;;;;4969361;28;20221;-64
2021/12/26 07:55:13;;;;;;;10.07;4.33;;;;;;;;;;4958316;28;20203;-63
2021/12/26 07:57:47;;;;;;;10.47;4.70;;;;;;;;;;4948159;28;20221;-64
2021/12/26 08:00:16;;;;;;;13.80;4.80;;;;;;;;;;4953012;28;20265;-64
2021/12/26 08:02:43;;;;;;;8.93;4.77;;;;;;;;;;4960507;28;20212;-63
2021/12/26 08:05:11;;;;;;;16.63;5.00;;;;;;;;;;4966385;28;20271;-63
2021/12/26 08:07:38;;;;;;;13.93;4.77;;;;;;;;;;4963772;28;20228;-63
2021/12/26 08:10:06;;;;;;;14.00;4.47;;;;;;;;;;4952446;28;20200;-63
2021/12/26 08:12:34;;;;;;;11.27;4.57;;;;;;;;;;4949337;28;20239;-64
2021/12/26 08:15:02;;;;;;;9.53;4.77;;;;;;;;;;4950429;28;20626;-62
2021/12/26 08:17:30;;;;;;;17.13;5.00;;;;;;;;;;4941421;28;20262;-63
2021/12/26 08:19:59;;;;;;;9.10;4.17;;;;;;;;;;4958400;28;20219;-63
2021/12/26 08:22:26;;;;;;;7.73;4.33;;;;;;;;;;4946570;28;20665;-64
2021/12/26 08:24:54;;;;;;;21.87;5.00;;;;;;;;;;4970707;28;20220;-64
2021/12/26 08:27:22;;;;;;;8.47;5.37;;;;;;;;;;4966429;28;20653;-65
2021/12/26 08:29:49;;;;;;;20.07;7.30;;;;;;;;;;4953867;28;20683;-63
2021/12/26 08:32:17;;;;;;;13.43;6.27;;;;;;;;;;4943289;28;20201;-64
2021/12/26 08:34:45;;;;;;;25.63;6.13;;;;;;;;;;4964337;28;20244;-62
2021/12/26 08:37:13;;;;;;;11.13;6.10;;;;;;;;;;4950774;28;20291;-64
2021/12/26 08:39:42;;;;;;;10.93;5.27;;;;;;;;;;4959888;28;20208;-64
2021/12/26 08:42:11;;;;;;;18.27;5.47;;;;;;;;;;4977651;28;20580;-63
2021/12/26 08:44:39;;;;;;;18.83;5.20;;;;;;;;;;4951605;28;23446;-63
2021/12/26 08:47:08;;;;;;;24.83;6.20;;;;;;;;;;4944530;28;20244;-62
2021/12/26 08:49:35;;;;;;;23.33;9.40;;;;;;;;;;4949031;28;20220;-62
2021/12/26 08:52:03;;;;;;;15.43;6.07;;;;;;;;;;4970245;28;20301;-63
2021/12/26 08:54:34;;;;;;;26.57;6.23;;;;;;;;;;4965997;28;20220;-64
2021/12/26 08:57:05;;;;;;;12.90;6.13;;;;;;;;;;4941037;28;20314;-62
2021/12/26 08:59:32;;;;;;;12.10;5.47;;;;;;;;;;4946489;28;20208;-63
2021/12/26 09:02:04;;;;;;;16.60;6.00;;;;;;;;;;4949420;28;20220;-63
2021/12/26 09:04:31;;;;;;;17.03;6.50;;;;;;;;;;4951748;28;20560;-64
2021/12/26 09:06:59;;;;;;;18.30;8.77;;;;;;;;;;4951381;28;20228;-62
2021/12/26 09:09:29;;;;;;;23.13;9.93;;;;;;;;;;4943726;28;21491;-64
2021/12/26 09:11:59;;;;;;;15.60;7.80;;;;;;;;;;4957583;28;20200;-63
2021/12/26 09:14:31;;;;;;;14.90;9.43;;;;;;;;;;4949432;28;20240;-64
2021/12/26 09:17:00;;;;;;;17.67;10.67;;;;;;;;;;4951443;28;20213;-64
2021/12/26 09:19:28;;;;;;;10.97;6.33;;;;;;;;;;4973654;28;20223;-63
2021/12/26 09:22:00;;;;;;;11.30;4.50;;;;;;;;;;4952542;28;20678;-63
2021/12/26 09:24:27;;;;;;;8.57;4.50;;;;;;;;;;4945870;28;20224;-63
2021/12/26 09:26:55;;;;;;;11.37;5.10;;;;;;;;;;4963906;28;20232;-65
2021/12/26 09:29:23;;;;;;;15.97;6.23;;;;;;;;;;4945858;28;21131;-63
2021/12/26 09:31:51;;;;;;;14.03;8.83;;;;;;;;;;4960280;28;20196;-64
2021/12/26 09:34:19;;;;;;;12.73;7.00;;;;;;;;;;4945521;28;20235;-64
2021/12/26 09:36:47;;;;;;;14.77;6.93;;;;;;;;;;4941676;28;20216;-64
2021/12/26 09:39:14;;;;;;;22.40;11.70;;;;;;;;;;4969982;28;20199;-64
2021/12/26 09:41:42;;;;;;;15.83;10.83;;;;;;;;;;4956686;28;20223;-63
2021/12/26 09:44:10;;;;;;;20.63;8.40;;;;;;;;;;4938668;28;20227;-64
2021/12/26 09:46:38;;;;;;;12.30;7.97;;;;;;;;;;4954607;28;20733;-63
2021/12/26 09:49:06;;;;;;;15.07;9.77;;;;;;;;;;4956268;28;20350;-62
2021/12/26 09:51:33;;;;;;;16.17;7.97;;;;;;;;;;4952677;28;20756;-63
2021/12/26 09:54:01;;;;;;;15.23;8.67;;;;;;;;;;4956777;28;20707;-63
2021/12/26 09:56:32;;;;;;;20.07;7.33;;;;;;;;;;4965678;28;20582;-65
2021/12/26 09:59:01;;;;;;;14.87;6.20;;;;;;;;;;4960747;28;20286;-63
2021/12/26 10:01:41;;;;;;;12.30;6.37;;;;;;;;;;4964474;28;20242;-63
2021/12/26 10:04:20;;;;;;;17.33;6.93;;;;;;;;;;4965870;28;20698;-64
2021/12/26 10:06:50;;;;;;;18.43;7.37;;;;;;;;;;4964913;28;21691;-63
2021/12/26 10:09:18;;;;;;;17.47;6.30;;;;;;;;;;4962577;28;20267;-64
2021/12/26 10:11:47;;;;;;;15.83;5.97;;;;;;;;;;4970808;28;20204;-62
2021/12/26 10:14:16;;;;;;;10.27;6.80;;;;;;;;;;4959081;28;20220;-62
2021/12/26 10:16:48;;;;;;;17.17;6.33;;;;;;;;;;4963747;28;20223;-63
2021/12/26 10:19:16;;;;;;;13.57;6.00;;;;;;;;;;4956576;28;20212;-63
2021/12/26 10:21:49;;;;;;;9.77;5.67;;;;;;;;;;4971477;28;20271;-64
2021/12/26 10:24:22;;;;;;;17.03;5.53;;;;;;;;;;4967565;28;20231;-63
2021/12/26 10:26:54;;;;;;;14.93;5.70;;;;;;;;;;4972605;28;20237;-63
2021/12/26 10:29:22;;;;;;;6.53;5.20;;;;;;;;;;4995578;28;20204;-65
2021/12/26 10:31:51;;;;;;;10.30;4.83;;;;;;;;;;4967252;28;20212;-64
2021/12/26 10:34:20;;;;;;;6.53;4.73;;;;;;;;;;4963643;28;20295;-63
2021/12/26 10:36:49;;;;;;;12.13;5.10;;;;;;;;;;4954681;28;20235;-62
2021/12/26 10:39:18;;;;;;;10.27;4.80;;;;;;;;;;4957875;28;20693;-64
2021/12/26 10:41:48;;;;;;;7.87;4.90;;;;;;;;;;4956281;28;20698;-62
2021/12/26 10:44:19;;;;;;;7.67;5.10;;;;;;;;;;4960916;28;20224;-64
2021/12/26 10:46:48;;;;;;;8.07;4.70;;;;;;;;;;4957320;28;20228;-62
2021/12/26 10:49:45;;;;;;;6.33;4.43;;;;;;;;;;4954785;28;20220;-64
2021/12/26 10:52:19;;;;;;;7.40;5.00;;;;;;;;;;4941044;28;20208;-63
2021/12/26 10:54:51;;;;;;;4.73;3.93;;;;;;;;;;4971070;28;20229;-65
2021/12/26 10:57:20;;;;;;;5.53;3.97;;;;;;;;;;4952712;28;20212;-64
2021/12/26 10:59:57;;;;;;;4.33;3.77;;;;;;;;;;4958674;28;20213;-64
2021/12/26 11:02:28;;;;;;;3.63;3.30;;;;;;;;;;4958811;28;20269;-62
2021/12/26 11:05:04;;;;;;;3.43;3.10;;;;;;;;;;4955269;28;20259;-64
2021/12/26 11:07:39;;;;;;;4.17;3.77;;;;;;;;;;4970935;28;20221;-63
2021/12/26 11:10:09;;;;;;;12.90;7.33;;;;;;;;;;4957080;28;20746;-63
2021/12/26 11:12:37;;;;;;;4.53;3.83;;;;;;;;;;4961918;28;20196;-64
2021/12/26 11:15:05;;;;;;;4.70;4.20;;;;;;;;;;4966535;28;20714;-64
2021/12/26 11:17:35;;;;;;;4.87;3.80;;;;;;;;;;4958071;28;20216;-64
2021/12/26 11:20:04;;;;;;;5.47;4.07;;;;;;;;;;4960384;28;20212;-63
2021/12/26 11:22:32;;;;;;;5.37;4.30;;;;;;;;;;4967910;28;20201;-64
2021/12/26 11:24:59;;;;;;;5.07;4.43;;;;;;;;;;4957620;28;20601;-62
2021/12/26 11:27:28;;;;;;;4.87;4.37;;;;;;;;;;4957872;28;20345;-62
2021/12/26 11:29:55;;;;;;;6.70;5.27;;;;;;;;;;4965498;28;20207;-64
2021/12/26 11:32:26;;;;;;;12.80;8.23;;;;;;;;;;4981213;28;20197;-63
2021/12/26 11:34:55;;;;;;;26.77;16.83;;;;;;;;;;4967580;28;20271;-64
2021/12/26 11:37:23;;;;;;;8.73;6.20;;;;;;;;;;4964637;28;20637;-64
2021/12/26 11:39:51;;;;;;;5.77;5.17;;;;;;;;;;4962332;28;20693;-64
2021/12/26 11:42:29;;;;;;;4.50;4.10;;;;;;;;;;4965062;28;20208;-64
2021/12/26 11:45:01;;;;;;;4.70;3.90;;;;;;;;;;4963621;28;20235;-64
2021/12/26 11:47:46;;;;;;;5.27;4.67;;;;;;;;;;4964529;28;20725;-64
2021/12/26 11:50:16;;;;;;;5.00;4.50;;;;;;;;;;4981626;28;20231;-63
2021/12/26 11:52:54;;;;;;;3.73;3.30;;;;;;;;;;4960913;28;20262;-63
2021/12/26 11:55:25;;;;;;;4.70;4.20;;;;;;;;;;4954990;28;20196;-64
2021/12/26 11:58:03;;;;;;;4.37;3.97;;;;;;;;;;4952807;28;20298;-63
2021/12/26 12:00:35;;;;;;;3.83;3.43;;;;;;;;;;4958350;28;20217;-62
2021/12/26 12:03:04;;;;;;;3.93;3.53;;;;;;;;;;4962636;28;20707;-62
2021/12/26 12:05:37;;;;;;;3.50;3.20;;;;;;;;;;4961925;28;20291;-64
2021/12/26 12:08:12;;;;;;;3.83;3.40;;;;;;;;;;4967236;28;20690;-63
2021/12/26 12:10:53;;;;;;;3.53;3.23;;;;;;;;;;4963029;28;20207;-63
2021/12/26 12:13:23;;;;;;;4.40;3.30;;;;;;;;;;4963372;28;20232;-64
2021/12/26 12:15:53;;;;;;;3.43;3.13;;;;;;;;;;4972685;28;20258;-63
2021/12/26 12:18:21;;;;;;;3.33;3.03;;;;;;;;;;4975136;28;20732;-64
2021/12/26 12:21:06;;;;;;;4.10;3.70;;;;;;;;;;4959238;28;20208;-63
2021/12/26 12:23:34;;;;;;;5.67;3.37;;;;;;;;;;4966977;28;20227;-64
2021/12/26 12:26:01;;;;;;;3.83;3.47;;;;;;;;;;4972573;28;20215;-63
2021/12/26 12:28:33;;;;;;;3.70;3.30;;;;;;;;;;4960058;28;20232;-64
2021/12/26 12:31:10;;;;;;;10.63;6.57;;;;;;;;;;4963613;28;20956;-62
2021/12/26 12:33:39;;;;;;;6.90;4.83;;;;;;;;;;4957633;28;20234;-63
2021/12/26 12:36:09;;;;;;;4.30;3.90;;;;;;;;;;4958778;28;20293;-63
2021/12/26 12:38:47;;;;;;;3.67;3.37;;;;;;;;;;4959706;28;20212;-64
2021/12/26 12:41:43;;;;;;;3.13;2.93;;;;;;;;;;4944418;28;20217;-63
2021/12/26 12:44:23;;;;;;;4.33;3.90;;;;;;;;;;4965837;28;20669;-62
2021/12/26 12:46:58;;;;;;;4.87;4.30;;;;;;;;;;4943045;28;20215;-62
2021/12/26 12:50:04;;;;;;;3.60;3.23;;;;;;;;;;4947698;28;20404;-63
2021/12/26 12:52:45;;;;;;;3.90;3.43;;;;;;;;;;4899664;28;20208;-62
2021/12/26 12:55:15;;;;;;;4.50;3.43;;;;;;;;;;4960386;28;20212;-63
2021/12/26 12:57:52;;;;;;;4.10;3.63;;;;;;;;;;4942224;28;20633;-63
2021/12/26 13:00:26;;;;;;;4.20;3.80;;;;;;;;;;4943673;28;20609;-63
2021/12/26 13:02:55;;;;;;;4.60;4.10;;;;;;;;;;4949341;28;20931;-63
2021/12/26 13:05:26;;;;;;;4.67;4.20;;;;;;;;;;4950960;28;20299;-63
2021/12/26 13:08:04;;;;;;;5.03;4.50;;;;;;;;;;4941928;28;20220;-61
2021/12/26 13:10:32;;;;;;;5.37;4.63;;;;;;;;;;4951118;28;20224;-63
2021/12/26 13:13:04;;;;;;;4.77;4.37;;;;;;;;;;4944111;28;20228;-63
2021/12/26 13:15:32;;;;;;;4.57;3.80;;;;;;;;;;4946049;28;20682;-63
2021/12/26 13:18:04;;;;;;;4.37;3.97;;;;;;;;;;4951159;28;20212;-63
2021/12/26 13:20:32;;;;;;;4.23;3.83;;;;;;;;;;4948408;28;20224;-63
2021/12/26 13:23:04;;;;;;;4.53;3.80;;;;;;;;;;4967563;28;20231;-63
2021/12/26 13:25:37;;;;;;;3.93;3.63;;;;;;;;;;4951075;28;20225;-62
2021/12/26 13:28:06;;;;;;;7.07;5.70;;;;;;;;;;4950323;28;20228;-62
2021/12/26 13:30:34;;;;;;;4.43;4.03;;;;;;;;;;4951941;28;20240;-63
2021/12/26 13:33:04;;;;;;;5.40;4.20;;;;;;;;;;4952627;28;20315;-63
2021/12/26 13:35:33;;;;;;;4.10;3.73;;;;;;;;;;4955796;28;20263;-63
2021/12/26 13:38:01;;;;;;;4.80;4.30;;;;;;;;;;4971043;28;20670;-63
2021/12/26 13:40:39;;;;;;;4.23;3.83;;;;;;;;;;4942101;28;20223;-63
2021/12/26 13:43:08;;;;;;;4.97;4.47;;;;;;;;;;4949059;28;20610;-63
2021/12/26 13:45:38;;;;;;;5.47;4.60;;;;;;;;;;4962346;28;20212;-62
2021/12/26 13:48:06;;;;;;;8.07;6.30;;;;;;;;;;4960283;28;21367;-63
2021/12/26 13:50:35;;;;;;;5.63;4.93;;;;;;;;;;4944676;28;20798;-63
2021/12/26 13:53:04;;;;;;;5.93;5.37;;;;;;;;;;4949145;28;20232;-63
2021/12/26 13:55:32;;;;;;;4.97;4.47;;;;;;;;;;4947064;28;20200;-64
2021/12/26 13:58:00;;;;;;;5.17;4.67;;;;;;;;;;4975694;28;21904;-63
2021/12/26 14:00:28;;;;;;;5.67;5.00;;;;;;;;;;4960701;28;20204;-63
2021/12/26 14:02:55;;;;;;;4.80;4.30;;;;;;;;;;4957389;28;20670;-62
2021/12/26 14:05:23;;;;;;;4.50;4.10;;;;;;;;;;4954342;28;20212;-63
2021/12/26 14:07:58;;;;;;;4.73;4.23;;;;;;;;;;4958177;28;20227;-64
2021/12/26 14:10:26;;;;;;;4.97;4.50;;;;;;;;;;4948247;28;20203;-63
2021/12/26 14:12:57;;;;;;;5.10;4.63;;;;;;;;;;4967710;28;20220;-63
2021/12/26 14:15:34;;;;;;;4.53;3.97;;;;;;;;;;4949768;28;20274;-62
2021/12/26 14:18:05;;;;;;;3.97;3.63;;;;;;;;;;4965057;28;20274;-63
2021/12/26 14:20:53;;;;;;;4.60;4.03;;;;;;;;;;4951128;28;20219;-62
2021/12/26 14:23:41;;;;;;;5.90;4.83;;;;;;;;;;4945298;28;20420;-63
2021/12/26 14:26:19;;;;;;;4.97;4.47;;;;;;;;;;4953137;28;20213;-61
2021/12/26 14:28:48;;;;;;;5.20;4.70;;;;;;;;;;4946885;28;20282;-63
2021/12/26 14:31:31;;;;;;;5.63;4.83;;;;;;;;;;4950132;28;20227;-63
2021/12/26 14:33:59;;;;;;;5.57;4.97;;;;;;;;;;4943283;28;20250;-64
2021/12/26 14:36:27;;;;;;;6.43;5.27;;;;;;;;;;4941203;28;21821;-63
2021/12/26 14:39:01;;;;;;;6.20;5.03;;;;;;;;;;4938558;28;20208;-63
2021/12/26 14:41:39;;;;;;;4.40;4.00;;;;;;;;;;4937181;28;20223;-63
2021/12/26 14:44:18;;;;;;;6.37;5.07;;;;;;;;;;4945518;28;20219;-63
2021/12/26 14:46:47;;;;;;;4.67;3.90;;;;;;;;;;4940235;28;20211;-62
2021/12/26 14:49:16;;;;;;;3.83;3.53;;;;;;;;;;4943233;28;20229;-64
2021/12/26 14:51:58;;;;;;;4.40;4.00;;;;;;;;;;4941628;28;20212;-62
2021/12/26 14:54:34;;;;;;;5.60;5.00;;;;;;;;;;4948020;28;20246;-62
2021/12/26 14:57:02;;;;;;;7.17;6.30;;;;;;;;;;4949051;28;20212;-63
2021/12/26 14:59:33;;;;;;;5.80;5.03;;;;;;;;;;4952030;28;20212;-62
2021/12/26 15:02:05;;;;;;;7.13;6.03;;;;;;;;;;4953296;28;20216;-64